Волотово

СКИДКИ НА СМАРТФОНЫ!

Карта отелей и гостиниц, располагающихся рядом с аэропортом Волотово :

Волотово Белгородская область 50° 56' 41.8812" N, 38° 10' 30.7812" E
Волотово Белгородская область 50° 56' 41.8812" N, 38° 10' 30.7812" E
Код аэродрома ИКАО
ZF5Q
Код аэродрома RU
ЗФ5Я
Координаты
N50.94497° E038.17522°
Превышение над уровнем моря
238
Основная полоса
14/32
Курс магнитный
138,7/318,7
Длина основной ВПП
424
Ширина основной ВПП
20
Покрытие основной ВПП
Твёрдое
Освещение ВПП
Нет
Тип: 
Аэродром
Класс аэродрома: 
Принадлежность: 
ГА
Статус: 
Недействующий
Сайт: 
E-mail аэродрома: 
Страна: 
Россия
Регион: 
Белгородская область
Город: 
Дополнительная информация: 
Площадка АХР.

Скидки на навигаторы!

Найти трансфер

С помощью этой формы Вы можете найти трансфер из аэропорта Волотово в город, аэропорт или вокзал:

Погода в аэропортах:

Авиационная погода в Чимкенте

Регион: 
Погода METAR: 
UAII 070500Z 10002MPS 5000 BR SCT050CB M03/M06 Q1030 NOSIG RMK QFE735/0980
Время наблюдения
2022-12-07T05:00:00Z
Температура C
-3.0
Точка росы
-6.0
Направление ветра
100
Скорость ветра (узлы)
4
Метео видимость
3.11
Облачность
SCT
Нижняя граница облачности (футы)
5000
Явления погоды
BR
Условия полета
MVFR
Аэропорт подробнее: 
SCT – разбросанная отдельная облачность;
BR – дымка (видимость от 1 до 9 км);

Авиационная погода в Якутске

Регион: 
Погода METAR: 
UEEE 072100Z 03005MPS 5000 BR NSC M39/M43 Q1000 R23L/490150 NOSIG RMK QFE741
Время наблюдения
2022-12-07T21:00:00Z
Температура C
-39.0
Точка росы
-43.0
Направление ветра
30
Скорость ветра (узлы)
10
Метео видимость
3.11
Облачность
CLR
Нижняя граница облачности (футы)
Явления погоды
BR
Условия полета
MVFR
Аэропорт подробнее: 
CLR — нет облаков ниже 3000 м
BR – дымка (видимость от 1 до 9 км);

Авиационная погода в Нальчике

Регион: 
Погода METAR: 
URMN 072100Z 22002MPS 2000 BR OVC007 M03/M03 Q1024 R24/////// NOSIG RMK MT OBSC QFE731
Время наблюдения
2022-12-07T21:00:00Z
Температура C
-3.0
Точка росы
-3.0
Направление ветра
220
Скорость ветра (узлы)
4
Метео видимость
1.24
Облачность
OVC
Нижняя граница облачности (футы)
700
Явления погоды
BR
Условия полета
IFR
Аэропорт подробнее: 
OVC – сплошная облачность;
BR – дымка (видимость от 1 до 9 км);

Авиационная погода в Яссах

Регион: 
Погода METAR: 
LRIA 072100Z 12003KT 0200 R14/0375N FG VV001 02/02 Q1015
Время наблюдения
2022-12-07T21:00:00Z
Температура C
2.0
Точка росы
2.0
Направление ветра
120
Скорость ветра (узлы)
3
Метео видимость
0.12
Облачность
OVX
Нижняя граница облачности (футы)
0
Явления погоды
FG
Условия полета
LIFR
FG – туман (небо не видно, температура воздуха выше нуля или ноль);